Latest Weather Observations for Spring Bay

IDT60801

Issued at 6:32 pm EST Sunday 24 July 2016 (issued every 30 minutes, with the page automatically refreshed every 10 minutes)

About weather observations | Map of weather stations | Latest weather observations for TAS | Other Formats
Station Details ID: 092133 Name: SPRING BAY NTC AWS Lat: -42.55 Lon: 147.93 Height: 0.0 m
Data from the previous 72 hours. | See also: Recent months for locations in Tasmania
Date/Time
EST
Temp
°C
App
Temp
°C
Dew
Point
°C
Rel
Hum
%
Delta-T
°C
Wind Press
QNH
hPa
Press
MSL
hPa
Rain since
9am
mm
Dir  Spd
km/h
Gust
km/h
Spd
kts
Gust
kts
24/06:30pm 7.4 - - - - - - - - - 1002.7 1002.7 -
24/06:00pm 7.6 - - - - - - - - - 1002.6 1002.6 -
24/05:30pm 8.7 - - - - - - - - - 1002.6 1002.6 -
24/05:00pm 8.6 - - - - - - - - - 1002.6 1002.6 -
24/04:30pm 9.1 - - - - - - - - - 1002.7 1002.7 -
24/04:00pm 9.6 - - - - - - - - - 1002.9 1002.9 -
24/03:30pm 9.8 - - - - - - - - - 1002.9 1002.9 -
24/03:00pm 9.7 - - - - - - - - - 1003.0 1003.0 -
24/02:30pm 9.7 - - - - - - - - - 1003.0 1003.0 -
24/02:00pm 9.4 - - - - - - - - - 1002.9 1002.9 -
24/01:30pm 9.4 - - - - - - - - - 1003.3 1003.3 -
24/01:00pm 9.7 - - - - - - - - - 1003.8 1003.8 -
24/12:30pm 9.3 - - - - - - - - - 1004.2 1004.2 -
24/12:00pm 9.2 - - - - - - - - - 1004.4 1004.4 -
24/11:30am 8.6 - - - - - - - - - 1004.7 1004.7 -
24/11:00am 8.5 - - - - - - - - - 1005.1 1005.1 -
24/10:30am 8.5 - - - - - - - - - 1005.1 1005.1 -
24/10:00am 8.1 - - - - - - - - - 1005.1 1005.1 -
24/09:30am 6.0 - - - - - - - - - 1005.3 1005.3 -
24/09:00am 6.6 - - - - - - - - - 1005.6 1005.6 -
24/08:30am 5.0 - - - - - - - - - 1005.5 1005.5 -
24/08:00am 4.6 - - - - - - - - - 1005.5 1005.5 -
24/07:30am 4.3 - - - - - - - - - 1005.1 1005.1 -
24/07:00am 4.9 - - - - - - - - - 1004.9 1004.9 -
24/06:30am 5.1 - - - - - - - - - 1004.7 1004.7 -
24/06:00am 5.1 - - - - - - - - - 1004.4 1004.4 -
24/05:30am 5.2 - - - - - - - - - 1004.4 1004.4 -
24/05:00am 5.5 - - - - - - - - - 1004.3 1004.3 -
24/04:30am 5.0 - - - - - - - - - 1004.3 1004.3 -
24/04:00am 5.4 - - - - - - - - - 1004.1 1004.1 -
24/03:30am 5.2 - - - - - - - - - 1003.9 1003.9 -
24/03:00am 5.0 - - - - - - - - - 1004.1 1004.1 -
24/02:30am 5.2 - - - - - - - - - 1004.1 1004.1 -
24/02:00am 5.3 - - - - - - - - - 1004.1 1004.1 -
24/01:30am 5.7 - - - - - - - - - 1004.0 1004.0 -
24/01:00am 5.7 - - - - - - - - - 1003.8 1003.8 -
24/12:30am 5.6 - - - - - - - - - 1003.7 1003.7 -
24/12:00am 5.2 - - - - - - - - - 1003.3 1003.3 -
 
Date/Time
EST
Temp
°C
App
Temp
°C
Dew
Point
°C
Rel
Hum
%
Delta-T
°C
Wind Press
QNH
hPa
Press
MSL
hPa
Rain since
9am
mm
Dir  Spd
km/h
Gust
km/h
Spd
kts
Gust
kts
23/11:30pm 5.1 - - - - - - - - - 1003.3 1003.3 -
23/11:00pm 4.8 - - - - - - - - - 1003.2 1003.2 -
23/10:30pm 4.9 - - - - - - - - - 1002.9 1002.9 -
23/10:00pm 5.3 - - - - - - - - - 1002.3 1002.3 -
23/09:30pm 5.0 - - - - - - - - - 1001.6 1001.6 -
23/09:00pm 5.3 - - - - - - - - - 1001.1 1001.1 -
23/08:30pm 5.4 - - - - - - - - - 1000.5 1000.5 -
23/08:00pm 5.5 - - - - - - - - - 999.5 999.5 -
23/07:30pm 4.9 - - - - - - - - - 999.0 999.0 -
23/07:00pm 4.8 - - - - - - - - - 998.3 998.3 -
23/06:30pm 4.6 - - - - - - - - - 997.6 997.6 -
23/06:00pm 4.6 - - - - - - - - - 996.7 996.7 -
23/05:30pm 5.3 - - - - - - - - - 996.0 996.0 -
23/05:00pm 5.7 - - - - - - - - - 995.1 995.1 -
23/04:30pm 5.4 - - - - - - - - - 994.5 994.5 -
23/04:00pm 6.3 - - - - - - - - - 993.8 993.8 -
23/03:30pm 5.9 - - - - - - - - - 992.9 992.9 -
23/03:00pm 5.8 - - - - - - - - - 991.7 991.7 -
23/02:30pm 7.8 - - - - - - - - - 990.7 990.7 -
23/02:00pm 8.0 - - - - - - - - - 990.3 990.3 -
23/01:30pm 8.1 - - - - - - - - - 989.5 989.5 -
23/01:00pm 6.8 - - - - - - - - - 989.4 989.4 -
23/12:30pm 6.7 - - - - - - - - - 989.2 989.2 -
23/12:00pm 6.1 - - - - - - - - - 989.3 989.3 -
23/11:30am 6.4 - - - - - - - - - 988.4 988.4 -
23/11:00am 6.0 - - - - - - - - - 988.3 988.3 -
23/10:30am 5.1 - - - - - - - - - 988.2 988.2 -
23/10:00am 5.3 - - - - - - - - - 987.2 987.2 -
23/09:30am 6.5 - - - - - - - - - 986.7 986.7 -
23/09:00am 6.1 - - - - - - - - - 986.1 986.1 -
23/08:30am 6.5 - - - - - - - - - 986.0 986.0 -
23/08:00am 6.8 - - - - - - - - - 985.2 985.2 -
23/07:30am 6.5 - - - - - - - - - 985.1 985.1 -
23/07:00am 6.8 - - - - - - - - - 984.2 984.2 -
23/06:30am 7.8 - - - - - - - - - 983.8 983.8 -
23/06:00am 7.5 - - - - - - - - - 983.2 983.2 -
23/05:30am 7.8 - - - - - - - - - 982.7 982.7 -
23/05:00am 8.0 - - - - - - - - - 982.6 982.6 -
23/04:30am 7.2 - - - - - - - - - 982.7 982.7 -
23/04:00am 7.1 - - - - - - - - - 982.6 982.6 -
23/03:30am 7.1 - - - - - - - - - 982.8 982.8 -
23/03:00am 6.7 - - - - - - - - - 983.2 983.2 -
23/02:30am 7.3 - - - - - - - - - 983.5 983.5 -
23/02:00am 7.6 - - - - - - - - - 983.8 983.8 -
23/01:30am 7.9 - - - - - - - - - 983.9 983.9 -
23/01:00am 8.4 - - - - - - - - - 984.3 984.3 -
23/12:30am 7.9 - - - - - - - - - 985.0 985.0 -
23/12:00am 8.0 - - - - - - - - - 985.5 985.5 -
 
Date/Time
EST
Temp
°C
App
Temp
°C
Dew
Point
°C
Rel
Hum
%
Delta-T
°C
Wind Press
QNH
hPa
Press
MSL
hPa
Rain since
9am
mm
Dir  Spd
km/h
Gust
km/h
Spd
kts
Gust
kts
22/11:30pm 8.1 - - - - - - - - - 985.9 985.9 -
22/11:00pm 7.4 - - - - - - - - - 986.1 986.1 -
22/10:30pm 8.3 - - - - - - - - - 986.0 986.0 -
22/10:00pm 8.3 - - - - - - - - - 985.9 985.9 -
22/09:30pm 8.6 - - - - - - - - - 985.8 985.8 -
22/09:00pm 9.1 - - - - - - - - - 984.9 984.9 -
22/08:30pm 9.2 - - - - - - - - - 985.1 985.1 -
22/08:00pm 9.2 - - - - - - - - - 985.0 985.0 -
22/07:30pm 9.1 - - - - - - - - - 984.8 984.8 -
22/07:00pm 9.3 - - - - - - - - - 984.1 984.1 -
22/06:30pm 9.4 - - - - - - - - - 983.2 983.2 -
22/06:00pm 9.5 - - - - - - - - - 983.1 983.1 -
22/05:30pm 9.7 - - - - - - - - - 981.9 981.9 -
22/05:00pm 11.9 - - - - - - - - - 981.0 981.0 -
22/04:30pm 12.7 - - - - - - - - - 979.8 979.8 -
22/04:00pm 12.0 - - - - - - - - - 979.4 979.4 -
22/03:30pm 13.6 - - - - - - - - - 979.2 979.2 -
22/03:00pm 12.9 - - - - - - - - - 978.8 978.8 -
22/02:30pm 13.2 - - - - - - - - - 978.9 978.9 -
22/02:00pm 13.6 - - - - - - - - - 978.6 978.6 -
22/01:30pm 14.3 - - - - - - - - - 979.3 979.3 -
22/01:00pm 14.6 - - - - - - - - - 979.9 979.9 -
22/12:30pm 14.7 - - - - - - - - - 980.8 980.8 -
22/12:00pm 14.8 - - - - - - - - - 981.4 981.4 -
22/11:30am 14.5 - - - - - - - - - 982.6 982.6 -
22/11:00am 14.6 - - - - - - - - - 983.4 983.4 -
22/10:30am 14.8 - - - - - - - - - 984.1 984.1 -
22/10:00am 14.9 - - - - - - - - - 984.3 984.3 -
22/09:30am 14.7 - - - - - - - - - 984.4 984.4 -
22/09:00am 14.1 - - - - - - - - - 984.6 984.6 -
22/08:30am 14.1 - - - - - - - - - 984.9 984.9 -
22/08:00am 14.9 - - - - - - - - - 985.3 985.3 -
22/07:30am 14.8 - - - - - - - - - 985.0 985.0 -
22/07:00am 15.2 - - - - - - - - - 985.0 985.0 -
22/06:30am 15.5 - - - - - - - - - 985.3 985.3 -
22/06:00am 15.4 - - - - - - - - - 986.0 986.0 -
22/05:30am 12.9 - - - - - - - - - 986.7 986.7 -
22/05:00am 12.2 - - - - - - - - - 988.3 988.3 -

Other Formats:

Comma delimited format used in spreadsheet applications
http://www.bom.gov.au/fwo/IDT60801/IDT60801.95987.axf

JavaScript Object Notation format (JSON) in row-major order
http://www.bom.gov.au/fwo/IDT60801/IDT60801.95987.json